Time;durP1;ratioP1;P1;durP2;ratioP2;P2;SDS_P1;SDS_P2;PMS_P1;PMS_P2;Temp;Humidity;BMP_temperature;BMP_pressure;BME280_temperature;BME280_humidity;BME280_pressure;Samples;Min_cycle;Max_cycle;Signal;HPM_P1;HPM_P2
2021/04/13 00:02:17;;;;;;;10.10;7.30;;;;;;;14.09;53.39;94977.09;5051133;28;20978;-79
2021/04/13 00:04:46;;;;;;;8.40;7.07;;;;;;;14.01;53.42;94980.50;5051202;28;20461;-79
2021/04/13 00:07:13;;;;;;;6.83;6.23;;;;;;;13.97;53.44;94981.78;5051276;28;20886;-79
2021/04/13 00:09:39;;;;;;;6.70;6.00;;;;;;;13.99;53.33;94979.81;5051443;28;20438;-79
2021/04/13 00:12:10;;;;;;;7.10;5.00;;;;;;;14.04;53.30;94977.56;5051187;28;20539;-79
2021/04/13 00:14:41;;;;;;;9.60;5.20;;;;;;;14.06;53.14;94980.88;5051075;28;20553;-79
2021/04/13 00:17:11;;;;;;;5.80;5.20;;;;;;;14.07;53.13;94976.44;5051539;28;20448;-79
2021/04/13 00:19:42;;;;;;;8.00;5.60;;;;;;;14.11;53.03;94977.78;5051153;28;20457;-79
2021/04/13 00:22:09;;;;;;;12.10;5.83;;;;;;;14.14;52.97;94977.47;5051140;28;20490;-80
2021/04/13 00:24:35;;;;;;;11.40;6.00;;;;;;;14.18;52.76;94976.22;5051465;28;20449;-79
2021/04/13 00:27:02;;;;;;;6.93;6.23;;;;;;;14.16;52.68;94972.88;5034223;28;20443;-79
2021/04/13 00:29:32;;;;;;;9.30;6.30;;;;;;;14.19;52.48;94978.72;5055197;28;20529;-79
2021/04/13 00:32:01;;;;;;;6.03;5.43;;;;;;;14.21;52.23;94979.41;5055142;28;20524;-79
2021/04/13 00:34:33;;;;;;;9.00;5.17;;;;;;;14.20;52.34;94985.66;5061380;28;20446;-79
2021/04/13 00:37:23;;;;;;;11.73;6.50;;;;;;;14.20;52.25;94987.47;5077254;28;20975;-80
2021/04/13 00:39:50;;;;;;;9.33;5.53;;;;;;;14.10;52.52;94978.75;5077405;28;20536;-79
2021/04/13 00:42:27;;;;;;;7.87;5.67;;;;;;;14.13;52.28;94987.22;5077607;28;20448;-79
2021/04/13 00:44:59;;;;;;;8.77;7.23;;;;;;;14.17;52.89;94988.59;5077226;28;20812;-79
2021/04/13 00:47:28;;;;;;;11.53;8.57;;;;;;;14.19;52.88;94989.28;5077390;28;20436;-79
2021/04/13 00:50:00;;;;;;;9.47;7.80;;;;;;;14.21;52.93;94995.22;5076838;28;20444;-79
2021/04/13 00:52:36;;;;;;;10.00;6.67;;;;;;;14.14;53.57;95007.34;5077161;28;20441;-80
2021/04/13 00:55:07;;;;;;;10.57;7.80;;;;;;;14.17;54.27;95012.34;5077007;28;20451;-79
2021/04/13 00:57:39;;;;;;;16.13;10.98;;;;;;;14.20;55.80;95016.50;5075881;28;20477;-79
2021/04/13 01:00:09;;;;;;;17.10;12.20;;;;;;;14.25;56.14;95022.16;5076798;28;20210;-80
2021/04/13 01:02:36;;;;;;;16.97;10.80;;;;;;;14.17;56.29;95017.63;5074891;28;20460;-79
2021/04/13 01:05:11;;;;;;;19.53;10.87;;;;;;;14.19;56.36;95015.66;5076925;28;20448;-79
2021/04/13 01:07:40;;;;;;;23.53;10.70;;;;;;;14.18;56.47;95024.56;5077227;28;20975;-79
2021/04/13 01:10:11;;;;;;;21.73;10.60;;;;;;;14.22;56.75;95025.94;5076922;28;20503;-79
2021/04/13 01:12:40;;;;;;;18.10;11.37;;;;;;;14.18;56.28;95024.56;5076622;28;20445;-79
2021/04/13 01:15:11;;;;;;;14.23;10.83;;;;;;;14.23;56.20;95026.75;5076893;28;20518;-79
2021/04/13 01:17:38;;;;;;;18.20;10.50;;;;;;;14.21;56.54;95018.97;5076516;28;20448;-79
2021/04/13 01:20:13;;;;;;;13.77;10.07;;;;;;;14.26;56.50;95015.91;5076801;28;20505;-79
2021/04/13 01:22:47;;;;;;;16.27;8.90;;;;;;;14.25;56.31;95020.34;5076524;28;20531;-79
2021/04/13 01:25:19;;;;;;;13.67;9.03;;;;;;;14.28;56.03;95019.22;5076796;28;20506;-79
2021/04/13 01:27:50;;;;;;;16.20;9.80;;;;;;;14.34;56.38;95025.69;5076598;28;20437;-79
2021/04/13 01:30:19;;;;;;;16.00;10.40;;;;;;;14.35;56.71;95020.28;5076008;28;20445;-79
2021/04/13 01:32:46;;;;;;;15.90;8.50;;;;;;;14.38;57.23;95024.41;5076538;28;20502;-79
2021/04/13 01:35:15;;;;;;;12.87;9.77;;;;;;;14.38;57.77;95019.97;5076064;28;20446;-79
2021/04/13 01:37:51;;;;;;;16.77;10.17;;;;;;;14.39;58.41;95015.50;5041049;28;20456;-79
2021/04/13 01:40:25;;;;;;;14.03;9.07;;;;;;;14.35;58.52;95024.72;5075774;28;20439;-79
2021/04/13 01:42:54;;;;;;;20.43;9.83;;;;;;;14.29;58.25;95015.59;5076206;28;20456;-80
2021/04/13 01:45:26;;;;;;;11.23;8.47;;;;;;;14.32;58.33;95017.09;5076376;28;20449;-79
2021/04/13 01:47:54;;;;;;;10.10;8.80;;;;;;;14.27;58.56;95021.03;5075694;28;20911;-80
2021/04/13 01:50:24;;;;;;;10.37;7.00;;;;;;;14.28;57.64;95027.13;5040929;28;20449;-79
2021/04/13 01:52:59;;;;;;;11.13;8.17;;;;;;;14.25;57.28;95022.97;5075999;28;20494;-79
2021/04/13 01:55:27;;;;;;;8.23;7.00;;;;;;;14.24;57.07;95010.78;5076215;28;20818;-79
2021/04/13 01:57:57;;;;;;;12.63;7.37;;;;;;;14.22;56.95;95015.38;5076200;28;20444;-79
2021/04/13 02:00:29;;;;;;;8.60;6.63;;;;;;;14.15;56.90;95006.38;5073540;28;21548;-79
2021/04/13 02:03:06;;;;;;;14.30;7.60;;;;;;;14.13;56.29;95016.25;5075795;28;20462;-79
2021/04/13 02:05:36;;;;;;;14.07;7.17;;;;;;;14.10;56.68;95015.72;5075845;28;20468;-79
2021/04/13 02:08:10;;;;;;;11.17;7.97;;;;;;;14.11;56.83;95015.56;5075422;28;20449;-79
2021/04/13 02:10:43;;;;;;;17.77;7.50;;;;;;;14.15;57.05;95010.81;5075526;28;20990;-79
2021/04/13 02:13:21;;;;;;;12.37;8.00;;;;;;;14.16;57.22;95010.66;5075785;28;20936;-79
2021/04/13 02:16:05;;;;;;;13.00;7.30;;;;;;;14.17;57.20;95019.44;5075236;28;20454;-80
2021/04/13 02:18:36;;;;;;;13.30;6.87;;;;;;;14.18;57.45;95013.19;5075238;28;20518;-79
2021/04/13 02:21:09;;;;;;;12.27;6.67;;;;;;;14.15;57.92;95009.00;5075540;28;20454;-79
2021/04/13 02:23:40;;;;;;;11.47;6.87;;;;;;;14.14;58.31;95006.50;5040193;28;20458;-80
2021/04/13 02:26:07;;;;;;;8.40;7.47;;;;;;;14.16;58.30;95009.81;5075217;28;20553;-79
2021/04/13 02:28:35;;;;;;;11.43;7.60;;;;;;;14.12;57.87;95006.66;5075603;28;20453;-79
2021/04/13 02:31:08;;;;;;;8.30;7.50;;;;;;;14.13;58.16;95002.22;5074955;28;20514;-79
2021/04/13 02:33:38;;;;;;;11.03;6.87;;;;;;;14.12;58.65;95009.31;5075176;28;20446;-79
2021/04/13 02:36:14;;;;;;;13.50;7.20;;;;;;;14.07;59.17;95001.00;5074957;28;20540;-79
2021/04/13 02:38:47;;;;;;;12.87;7.23;;;;;;;14.10;59.41;95011.25;5075454;28;20451;-79
2021/04/13 02:41:19;;;;;;;15.40;9.20;;;;;;;14.08;60.13;95007.94;5074936;28;20921;-79
2021/04/13 02:43:50;;;;;;;13.37;8.57;;;;;;;14.13;60.26;95010.97;5075191;28;20935;-79
2021/04/13 02:46:21;;;;;;;10.60;8.50;;;;;;;14.13;61.28;95016.25;5075289;28;20828;-79
2021/04/13 02:48:54;;;;;;;8.37;7.40;;;;;;;14.13;61.40;95013.59;5056420;28;20437;-79
2021/04/13 02:51:22;;;;;;;7.53;6.67;;;;;;;14.10;61.63;95019.19;5074277;28;20485;-79
2021/04/13 02:53:51;;;;;;;9.53;7.07;;;;;;;14.07;61.91;95011.56;5074644;28;20455;-79
2021/04/13 02:56:22;;;;;;;8.73;6.90;;;;;;;14.03;62.34;95015.47;5075191;28;20523;-79
2021/04/13 02:59:09;;;;;;;15.07;7.20;;;;;;;14.00;62.15;95014.94;5075062;28;20429;-79
2021/04/13 03:01:37;;;;;;;10.57;6.63;;;;;;;13.97;61.91;95012.59;5012633;28;20825;-79
2021/04/13 03:04:08;;;;;;;10.10;8.10;;;;;;;13.95;62.47;95018.84;5012862;28;20444;-79
2021/04/13 03:06:37;;;;;;;8.20;7.17;;;;;;;13.93;62.54;95018.19;5012542;28;20525;-79
2021/04/13 03:09:05;;;;;;;9.40;7.70;;;;;;;13.80;63.24;95008.94;5012747;28;20547;-79
2021/04/13 03:11:33;;;;;;;9.93;8.30;;;;;;;13.83;64.26;95016.56;4979977;28;20493;-79
2021/04/13 03:14:00;;;;;;;12.53;8.10;;;;;;;13.80;65.47;95014.22;5012580;28;20479;-79
2021/04/13 03:16:35;;;;;;;8.10;7.27;;;;;;;13.77;65.23;95011.88;5012614;28;20450;-79
2021/04/13 03:19:07;;;;;;;9.57;7.80;;;;;;;13.72;65.03;95020.22;5012324;28;20494;-79
2021/04/13 03:21:37;;;;;;;10.40;8.77;;;;;;;13.72;66.23;95016.75;5012458;28;20455;-79
2021/04/13 03:24:08;;;;;;;9.83;8.67;;;;;;;13.66;67.05;95010.25;5012090;28;20449;-79
2021/04/13 03:26:43;;;;;;;11.97;7.93;;;;;;;13.62;67.33;95017.63;5011977;28;20451;-79
2021/04/13 03:29:24;;;;;;;9.90;8.20;;;;;;;13.57;67.50;95006.66;5012244;28;20455;-79
2021/04/13 03:31:54;;;;;;;12.10;8.30;;;;;;;13.57;67.94;95006.66;5011883;28;20494;-79
2021/04/13 03:34:23;;;;;;;10.20;8.03;;;;;;;13.55;68.95;95007.78;5012055;28;20931;-79
2021/04/13 03:36:52;;;;;;;12.40;8.73;;;;;;;13.53;69.08;95007.13;5012292;28;20458;-79
2021/04/13 03:39:27;;;;;;;8.30;7.47;;;;;;;13.46;69.53;95004.22;5027760;28;20774;-79
2021/04/13 03:41:55;;;;;;;13.33;8.20;;;;;;;13.42;69.19;95002.88;5073918;28;20456;-79
2021/04/13 03:44:22;;;;;;;11.23;8.57;;;;;;;13.41;69.27;95013.56;5073720;28;20477;-79
2021/04/13 03:46:49;;;;;;;16.53;9.43;;;;;;;13.42;70.08;95009.94;5073586;28;20481;-79
2021/04/13 03:49:18;;;;;;;10.30;8.50;;;;;;;13.41;71.20;95010.91;5074087;28;20810;-79
2021/04/13 03:51:49;;;;;;;16.83;8.33;;;;;;;13.33;71.22;95003.75;5073708;28;20492;-80
2021/04/13 03:54:27;;;;;;;8.67;7.13;;;;;;;13.24;71.15;95012.50;5073867;28;20444;-79
2021/04/13 03:56:56;;;;;;;11.40;8.97;;;;;;;13.21;70.90;95008.34;5073806;28;20448;-80
2021/04/13 03:59:24;;;;;;;16.50;7.47;;;;;;;13.18;72.05;95013.06;5073522;28;20444;-80
2021/04/13 04:01:51;;;;;;;12.33;8.20;;;;;;;13.17;72.12;95021.91;5073588;28;20456;-79
2021/04/13 04:04:27;;;;;;;23.20;14.03;;;;;;;13.09;73.07;95019.16;5073845;28;20625;-79
2021/04/13 04:06:56;;;;;;;11.73;9.90;;;;;;;13.08;74.06;95017.50;5073368;28;20501;-80
2021/04/13 04:09:35;;;;;;;16.87;11.10;;;;;;;13.01;74.55;95007.53;5073844;28;20513;-79
2021/04/13 04:12:14;;;;;;;12.47;8.90;;;;;;;12.98;75.13;95026.22;5073638;28;20479;-79
2021/04/13 04:14:40;;;;;;;11.87;8.73;;;;;;;12.93;75.11;95015.28;5073883;28;20456;-79
2021/04/13 04:17:12;;;;;;;10.00;8.97;;;;;;;12.94;76.31;95013.50;5073470;28;20445;-79
2021/04/13 04:19:38;;;;;;;11.47;9.17;;;;;;;12.94;76.75;95010.88;5073505;28;20448;-79
2021/04/13 04:22:08;;;;;;;12.60;9.37;;;;;;;12.97;78.43;95015.84;5073785;28;20452;-79
2021/04/13 04:24:38;;;;;;;15.30;10.17;;;;;;;13.00;79.03;95021.66;5073138;28;20527;-79
2021/04/13 04:27:17;;;;;;;17.77;9.33;;;;;;;12.81;78.99;95019.06;5073551;28;20451;-79
2021/04/13 04:29:45;;;;;;;12.80;10.10;;;;;;;12.60;79.17;95032.38;5073315;28;20453;-80
2021/04/13 04:32:18;;;;;;;14.77;10.30;;;;;;;12.60;79.55;95042.06;5073381;28;20488;-79
2021/04/13 04:34:56;;;;;;;18.97;10.93;;;;;;;12.56;79.60;95033.63;5073358;28;20459;-79
2021/04/13 04:37:56;;;;;;;14.97;10.43;;;;;;;12.59;80.08;95035.16;5054346;28;20452;-81
2021/04/13 04:40:57;;;;;;;15.67;9.97;;;;;;;13.53;80.47;95033.47;5075084;28;20473;-78
2021/04/13 04:43:44;;;;;;;13.10;11.03;;;;;;;14.38;75.31;95045.53;5073211;28;20479;-78
2021/04/13 04:46:11;;;;;;;11.53;10.40;;;;;;;14.48;73.28;95041.06;5072455;28;20494;-78
2021/04/13 04:48:38;;;;;;;11.43;9.67;;;;;;;14.39;73.55;95040.09;5054263;28;20449;-77
2021/04/13 04:51:07;;;;;;;11.10;10.00;;;;;;;14.29;74.49;95041.16;5072829;28;20484;-78
2021/04/13 04:53:36;;;;;;;632.50;406.37;;;;;;;14.50;94.03;95044.38;5072830;28;20451;-78
2021/04/13 04:56:04;;;;;;;345.42;199.52;;;;;;;15.67;97.60;95044.97;5071761;28;20424;-79
2021/04/13 04:58:31;;;;;;;27.23;16.20;;;;;;;15.85;74.07;95047.53;5072734;28;20445;-78
2021/04/13 05:00:57;;;;;;;18.33;12.80;;;;;;;15.50;71.38;95042.19;5072870;28;20499;-80
2021/04/13 05:03:26;;;;;;;19.10;15.07;;;;;;;15.13;72.47;95047.75;5073066;28;20468;-78
2021/04/13 05:05:52;;;;;;;30.20;14.33;;;;;;;14.81;71.83;95037.75;5073278;28;20425;-78
2021/04/13 05:08:19;;;;;;;27.07;19.57;;;;;;;14.61;73.53;95032.75;5073254;28;20507;-78
2021/04/13 05:10:48;;;;;;;19.60;15.07;;;;;;;14.42;74.79;95031.88;5072358;28;20442;-78
2021/04/13 05:13:14;;;;;;;23.27;15.40;;;;;;;13.78;75.62;95019.63;5072509;28;20940;-78
2021/04/13 05:15:41;;;;;;;29.33;16.30;;;;;;;13.57;77.94;95022.50;5076142;28;20448;-78
2021/04/13 05:18:07;;;;;;;23.97;14.60;;;;;;;13.58;78.58;95021.50;5076682;28;20451;-78
2021/04/13 05:20:34;;;;;;;48.07;24.63;;;;;;;13.52;80.71;95016.81;5075989;28;20504;-77
2021/04/13 05:23:00;;;;;;;141.37;64.83;;;;;;;13.53;81.85;95013.22;5076177;28;20447;-78
2021/04/13 05:25:27;;;;;;;141.20;70.83;;;;;;;13.53;82.05;95001.84;5075791;28;20436;-77
2021/04/13 05:27:54;;;;;;;27.33;15.67;;;;;;;13.50;82.95;95002.97;5075823;28;20448;-77
2021/04/13 05:30:22;;;;;;;17.30;13.53;;;;;;;13.53;82.32;94996.56;5076309;28;20441;-77
2021/04/13 05:32:49;;;;;;;20.83;15.30;;;;;;;13.59;82.26;95002.13;5076230;28;20480;-77
2021/04/13 05:35:16;;;;;;;21.77;13.87;;;;;;;13.65;83.34;95000.69;5076217;28;21012;-78
2021/04/13 05:37:43;;;;;;;27.50;16.43;;;;;;;13.72;82.95;95000.94;5076097;28;20498;-79
2021/04/13 05:40:15;;;;;;;48.77;22.13;;;;;;;13.72;82.14;95006.22;5075735;28;20917;-78
2021/04/13 05:42:41;;;;;;;33.30;21.47;;;;;;;13.72;81.84;95003.56;5075681;28;20452;-77
2021/04/13 05:45:13;;;;;;;37.97;23.27;;;;;;;13.77;82.65;95009.22;5075638;28;20472;-77
2021/04/13 05:47:40;;;;;;;52.53;26.10;;;;;;;13.82;82.81;95005.16;5075480;28;20442;-78
2021/04/13 05:50:09;;;;;;;42.27;21.80;;;;;;;13.88;82.19;95009.88;5075804;28;20449;-78
2021/04/13 05:52:35;;;;;;;26.70;17.70;;;;;;;13.89;81.31;94986.97;5075666;28;20582;-80
2021/04/13 05:55:01;;;;;;;19.10;14.20;;;;;;;13.92;79.32;94991.94;5075921;28;20431;-85
2021/04/13 05:57:31;;;;;;;16.87;13.03;;;;;;;13.79;79.77;94991.44;5076163;28;20445;-79
2021/04/13 06:00:01;;;;;;;15.40;11.63;;;;;;;13.50;81.44;94992.41;5075919;28;20433;-79
2021/04/13 06:02:31;;;;;;;14.17;10.93;;;;;;;13.59;81.96;94981.03;5075404;28;20457;-83
2021/04/13 06:05:00;;;;;;;15.63;11.20;;;;;;;13.54;82.13;94979.78;5075449;28;20436;-79
2021/04/13 06:07:27;;;;;;;22.23;13.57;;;;;;;13.41;82.88;94972.22;5074966;28;20453;-79
2021/04/13 06:09:53;;;;;;;20.10;13.80;;;;;;;13.13;86.41;94973.13;5075244;28;20468;-79
2021/04/13 06:12:21;;;;;;;17.30;13.27;;;;;;;13.02;86.31;94964.41;5075748;28;20554;-80
2021/04/13 06:14:49;;;;;;;21.83;14.97;;;;;;;13.16;86.96;94967.56;5075063;28;20480;-78
2021/04/13 06:17:16;;;;;;;17.10;13.50;;;;;;;13.06;85.82;94958.84;5068587;28;20531;-80
2021/04/13 06:19:43;;;;;;;18.60;12.53;;;;;;;13.22;85.43;94967.00;5043394;28;20565;-78
2021/04/13 06:22:09;;;;;;;19.20;13.00;;;;;;;13.38;87.33;94964.59;5054864;28;20450;-77
2021/04/13 06:24:36;;;;;;;26.23;16.03;;;;;;;13.50;87.90;94958.16;5054890;28;20450;-78
2021/04/13 06:27:02;;;;;;;25.05;16.75;;;;;;;13.68;88.18;94958.22;5054192;28;20462;-79
2021/04/13 06:29:28;;;;;;;20.33;15.50;;;;;;;13.78;87.83;94947.59;5054836;28;20668;-79
2021/04/13 06:31:55;;;;;;;19.13;10.83;;;;;;;13.65;85.39;94942.69;5066239;28;20542;-81
2021/04/13 06:34:21;;;;;;;24.90;10.37;;;;;;;13.35;86.56;94924.53;5074250;28;20437;-82
2021/04/13 06:36:48;;;;;;;13.00;9.60;;;;;;;13.19;87.82;94904.88;5075190;28;20453;-82
2021/04/13 06:39:15;;;;;;;12.47;8.80;;;;;;;12.97;90.06;94890.25;5074911;28;20998;-82
2021/04/13 06:42:04;;;;;;;12.40;8.50;;;;;;;12.98;89.12;94891.06;5075300;28;20449;-81
2021/04/13 06:45:04;;;;;;;14.83;8.77;;;;;;;12.99;88.21;94888.28;5075599;28;20477;-80
2021/04/13 06:48:06;;;;;;;9.00;7.50;;;;;;;13.08;87.42;94898.94;5074365;28;20453;-81
2021/04/13 06:50:36;;;;;;;10.30;8.70;;;;;;;13.25;86.53;94911.38;4974268;28;20437;-80
2021/04/13 06:53:21;;;;;;;14.47;9.43;;;;;;;13.42;85.35;94910.59;4941660;28;20437;-80
2021/04/13 06:56:03;;;;;;;10.63;7.47;;;;;;;13.62;84.27;94919.25;4973238;28;20459;-80
2021/04/13 06:58:48;;;;;;;8.63;6.60;;;;;;;13.74;81.42;94931.25;4973440;28;20451;-80
2021/04/13 07:01:22;;;;;;;10.07;6.87;;;;;;;13.78;80.10;94931.78;4973267;28;20544;-80
2021/04/13 07:03:58;;;;;;;13.80;7.73;;;;;;;13.89;80.00;94932.41;4973748;28;20592;-80
2021/04/13 07:06:30;;;;;;;10.13;8.40;;;;;;;14.01;80.01;94927.72;4973857;28;20512;-80
2021/04/13 07:09:03;;;;;;;12.10;8.00;;;;;;;14.11;79.92;94925.84;4958100;28;20516;-79
2021/04/13 07:11:34;;;;;;;11.20;6.87;;;;;;;14.22;79.26;94917.72;4973258;28;20492;-79
2021/04/13 07:14:04;;;;;;;16.70;7.80;;;;;;;14.29;80.02;94917.94;4974475;28;20450;-81
2021/04/13 07:16:37;;;;;;;14.40;7.60;;;;;;;14.34;79.90;94918.28;4957509;28;20446;-82
2021/04/13 07:19:13;;;;;;;10.27;7.47;;;;;;;14.47;78.67;94917.97;4974327;28;20445;-81
2021/04/13 07:21:44;;;;;;;10.73;6.63;;;;;;;14.57;76.89;94916.03;5012154;28;20963;-83
2021/04/13 07:24:21;;;;;;;9.70;7.70;;;;;;;14.57;74.47;94903.66;5000042;28;20504;-83
2021/04/13 07:26:56;;;;;;;8.27;6.43;;;;;;;14.68;74.18;94902.56;5043248;28;20446;-83
2021/04/13 07:29:27;;;;;;;12.27;6.60;;;;;;;14.79;74.18;94902.34;5077645;28;20446;-84
2021/04/13 07:32:00;;;;;;;18.80;6.43;;;;;;;14.67;72.05;94903.56;5076007;28;20554;-83
2021/04/13 07:34:28;;;;;;;10.30;7.20;;;;;;;14.71;73.49;94904.91;5075684;28;20441;-84
2021/04/13 07:36:59;;;;;;;15.13;5.83;;;;;;;14.84;74.17;94897.41;5078801;28;20460;-82
2021/04/13 07:39:27;;;;;;;12.50;6.57;;;;;;;14.79;73.25;94897.06;5074785;28;20569;-83
2021/04/13 07:42:00;;;;;;;12.40;7.03;;;;;;;14.93;73.56;94892.16;5077838;28;20457;-81
2021/04/13 07:44:54;;;;;;;9.73;6.50;;;;;;;14.94;73.74;94893.81;5076046;28;20472;-82
2021/04/13 07:47:35;;;;;;;9.50;7.03;;;;;;;14.95;73.50;94895.47;5072147;28;20448;-82
2021/04/13 07:50:03;;;;;;;11.13;8.80;;;;;;;15.09;74.16;94881.69;5077270;28;20455;-85
2021/04/13 07:52:41;;;;;;;10.03;7.97;;;;;;;15.28;74.94;94877.97;5077237;28;20493;-87
2021/04/13 07:55:18;;;;;;;12.07;7.70;;;;;;;15.51;73.53;94881.69;5077509;28;20452;-85
2021/04/13 07:57:54;;;;;;;11.97;7.23;;;;;;;15.70;72.60;94881.47;5058032;28;20879;-85
2021/04/13 08:00:23;;;;;;;18.47;8.80;;;;;;;15.90;71.62;94878.50;5074852;28;20451;-82
2021/04/13 08:02:55;;;;;;;17.00;7.50;;;;;;;16.09;70.71;94884.34;5073619;28;20465;-82
2021/04/13 08:05:40;;;;;;;11.43;7.53;;;;;;;16.31;70.39;94880.22;5074248;28;20451;-83
2021/04/13 08:08:09;;;;;;;19.77;7.63;;;;;;;16.46;70.80;94872.44;5070677;28;20458;-80
2021/04/13 08:10:39;;;;;;;15.10;8.40;;;;;;;16.61;70.53;94876.06;5068780;28;20499;-82
2021/04/13 08:13:08;;;;;;;10.63;8.40;;;;;;;16.77;70.03;94874.41;5075137;28;20484;-83
2021/04/13 08:15:48;;;;;;;18.80;7.37;;;;;;;16.83;68.48;94864.00;5074658;28;20450;-84
2021/04/13 08:18:31;;;;;;;15.50;9.17;;;;;;;16.72;66.71;94862.50;5073991;28;20525;-84
2021/04/13 08:21:21;;;;;;;9.30;7.00;;;;;;;16.72;66.02;94873.09;5052011;28;20455;-81
2021/04/13 08:23:48;;;;;;;49.17;10.50;;;;;;;16.64;67.00;94859.84;5051752;28;20486;-82
2021/04/13 08:26:38;;;;;;;11.43;7.63;;;;;;;16.63;66.53;94863.50;5052301;28;20447;-82
2021/04/13 08:29:16;;;;;;;19.23;7.67;;;;;;;16.70;67.42;94859.19;5052188;28;20453;-83
2021/04/13 08:34:50;;;;;;;22.43;10.03;;;;;;;16.51;69.71;94854.25;5052477;28;20449;-82
2021/04/13 08:37:41;;;;;;;11.73;8.23;;;;;;;16.42;69.95;94855.22;5052100;28;20624;-83
2021/04/13 08:40:24;;;;;;;17.70;8.13;;;;;;;16.34;70.84;94853.41;5049168;28;20448;-80
2021/04/13 08:43:01;;;;;;;13.13;8.30;;;;;;;16.29;72.37;94855.72;5052443;28;20470;-83
2021/04/13 08:45:36;;;;;;;14.03;9.40;;;;;;;16.16;73.49;94857.22;5055958;28;20449;-89
2021/04/13 08:48:12;;;;;;;15.13;8.30;;;;;;;16.09;73.94;94849.94;5054904;28;20467;-83
2021/04/13 08:50:41;;;;;;;15.37;10.43;;;;;;;16.11;75.12;94847.94;5058267;28;20445;-80
2021/04/13 08:53:10;;;;;;;19.23;8.70;;;;;;;16.23;74.92;94850.28;5057329;28;20482;-83
2021/04/13 08:55:45;;;;;;;16.03;8.93;;;;;;;16.21;74.08;94853.09;5056651;28;20446;-83
2021/04/13 08:58:38;;;;;;;21.93;11.00;;;;;;;16.21;74.91;94846.97;5067880;28;20501;-82
2021/04/13 09:01:24;;;;;;;15.90;9.20;;;;;;;16.15;72.89;94852.91;5063536;28;20503;-81
2021/04/13 09:03:50;;;;;;;16.47;9.10;;;;;;;16.13;73.91;94847.78;5077570;28;20447;-81
2021/04/13 09:06:26;;;;;;;12.60;9.40;;;;;;;16.23;74.57;94850.28;5077950;28;20448;-84
2021/04/13 09:08:58;;;;;;;13.77;9.07;;;;;;;16.30;73.58;94845.97;5059228;28;20438;-83
2021/04/13 09:11:29;;;;;;;11.63;8.17;;;;;;;16.34;73.47;94836.69;5077819;28;20538;-82
2021/04/13 09:14:09;;;;;;;11.27;7.60;;;;;;;16.44;71.78;94845.28;5078146;28;20906;-84
2021/04/13 09:16:39;;;;;;;12.87;7.37;;;;;;;16.47;69.74;94846.78;5078073;28;20452;-83
2021/04/13 09:19:18;;;;;;;21.20;9.10;;;;;;;16.42;70.98;94834.03;5079445;28;20446;-85
2021/04/13 09:21:47;;;;;;;17.83;9.57;;;;;;;16.35;70.13;94838.34;5076811;28;20434;-85
2021/04/13 09:24:20;;;;;;;12.03;8.70;;;;;;;16.32;71.54;94833.38;5076860;28;20446;-81
2021/04/13 09:27:02;;;;;;;13.70;8.37;;;;;;;16.43;72.06;94827.75;5076527;28;20508;-85
2021/04/13 09:29:37;;;;;;;14.13;8.40;;;;;;;16.50;71.44;94825.28;5076906;28;20453;-85
2021/04/13 09:32:06;;;;;;;16.30;8.33;;;;;;;16.45;70.72;94825.75;5080938;28;20488;-85
2021/04/13 09:35:04;;;;;;;20.73;8.60;;;;;;;16.20;70.90;94832.91;5077222;28;20454;-85
2021/04/13 09:37:45;;;;;;;16.40;8.97;;;;;;;16.09;71.14;94819.97;5077109;28;20468;-83
2021/04/13 09:40:24;;;;;;;16.10;8.60;;;;;;;16.11;72.27;94829.41;5077722;28;20472;-81
2021/04/13 09:43:12;;;;;;;13.70;9.20;;;;;;;16.01;72.28;94828.75;5076472;28;20450;-85
2021/04/13 09:46:01;;;;;;;16.40;8.43;;;;;;;16.04;73.22;94825.78;5076819;28;20528;-86
2021/04/13 09:49:08;;;;;;;20.40;9.03;;;;;;;15.97;72.53;94826.59;5034722;28;20454;-85
2021/04/13 09:51:48;;;;;;;16.43;8.60;;;;;;;15.98;73.00;94825.63;5035517;28;20535;-85
2021/04/13 09:54:29;;;;;;;18.57;9.90;;;;;;;16.06;74.21;94831.72;5035291;28;20446;-84
2021/04/13 09:57:24;;;;;;;10.33;8.23;;;;;;;16.14;76.25;94828.25;5035467;28;20480;-84
2021/04/13 10:00:37;;;;;;;16.60;7.80;;;;;;;16.13;75.64;94826.59;5035747;28;20949;-85
2021/04/13 10:03:35;;;;;;;19.93;10.17;;;;;;;16.17;75.28;94835.03;4956470;29;20808;-85
2021/04/13 10:06:02;;;;;;;13.90;8.90;;;;;;;16.09;76.79;94833.22;4955906;29;20950;-85
2021/04/13 10:08:33;;;;;;;19.63;10.30;;;;;;;16.09;76.48;94828.75;4955793;29;20935;-85
2021/04/13 10:11:28;;;;;;;23.40;9.70;;;;;;;15.92;75.72;94826.28;4923783;29;20943;-85
2021/04/13 10:14:39;;;;;;;14.83;11.20;;;;;;;15.95;76.99;94832.06;4962945;28;20449;-85
2021/04/13 10:27:51;;;;;;;13.40;9.30;;;;;;;15.68;81.33;94832.34;5014570;28;20441;-85
2021/04/13 10:30:33;;;;;;;14.50;10.60;;;;;;;15.73;83.83;94832.69;5017200;28;20794;-81
2021/04/13 10:33:26;;;;;;;20.20;12.27;;;;;;;15.76;84.84;94838.47;4966435;28;20523;-82
2021/04/13 10:36:20;;;;;;;24.63;13.50;;;;;;;15.76;85.18;94833.19;4997822;28;20457;-83
2021/04/13 10:39:23;;;;;;;23.30;10.63;;;;;;;15.38;85.98;94842.50;5026423;28;20479;-84
2021/04/13 10:42:43;;;;;;;20.93;11.50;;;;;;;15.34;87.71;94827.13;5041817;28;20449;-81
2021/04/13 10:45:48;;;;;;;26.77;11.50;;;;;;;15.21;88.28;94838.13;5056456;28;20848;-83
2021/04/13 10:48:43;;;;;;;18.30;12.30;;;;;;;15.20;90.95;94839.13;5059493;28;20437;-85
2021/04/13 10:51:30;;;;;;;15.10;10.40;;;;;;;15.22;90.63;94829.22;4998743;28;20484;-84
2021/04/13 10:57:57;;;;;;;23.90;13.23;;;;;;;14.91;91.67;94828.09;5017089;28;20496;-84
2021/04/13 11:00:35;;;;;;;25.63;13.00;;;;;;;14.69;92.09;94826.81;5016133;28;21060;-83
2021/04/13 11:03:36;;;;;;;19.50;12.23;;;;;;;14.61;94.66;94832.06;5014084;28;20567;-84
2021/04/13 11:06:32;;;;;;;24.53;13.93;;;;;;;14.57;95.08;94828.91;4997487;28;20493;-83
2021/04/13 11:09:36;;;;;;;25.00;14.33;;;;;;;14.56;96.69;94829.88;5013117;28;20456;-84
2021/04/13 11:12:53;;;;;;;22.83;14.93;;;;;;;14.45;99.09;94830.13;5012196;28;20610;-83
2021/04/13 11:15:43;;;;;;;24.40;15.93;;;;;;;14.23;100.00;94829.63;4974146;28;20513;-83
2021/04/13 11:18:43;;;;;;;20.43;13.90;;;;;;;14.16;100.00;94823.28;4973842;28;20448;-83
2021/04/13 11:21:34;;;;;;;21.13;12.53;;;;;;;13.85;100.00;94816.75;4897473;29;20456;-83
2021/04/13 11:24:36;;;;;;;16.93;10.17;;;;;;;13.76;100.00;94815.06;4898186;29;20465;-83
2021/04/13 11:27:58;;;;;;;17.93;11.50;;;;;;;13.53;100.00;94815.50;4861317;29;20454;-83
2021/04/13 11:30:48;;;;;;;19.63;12.13;;;;;;;13.51;100.00;94804.25;4878492;29;20461;-82
2021/04/13 11:33:35;;;;;;;18.43;12.50;;;;;;;13.29;100.00;94804.69;4878601;29;20493;-83
2021/04/13 11:36:10;;;;;;;19.10;13.67;;;;;;;13.33;100.00;94806.06;4879198;29;20446;-83
2021/04/13 11:39:00;;;;;;;19.60;11.07;;;;;;;13.11;100.00;94796.75;4853426;29;20457;-83
2021/04/13 11:42:16;;;;;;;16.90;12.27;;;;;;;13.17;100.00;94798.81;4880196;29;20822;-82
2021/04/13 11:44:52;;;;;;;19.60;11.83;;;;;;;13.23;100.00;94802.66;4880668;29;20488;-83
2021/04/13 11:47:31;;;;;;;23.80;14.60;;;;;;;13.35;100.00;94808.56;4880514;29;20795;-82
2021/04/13 11:50:06;;;;;;;22.30;12.60;;;;;;;13.26;100.00;94805.81;4879783;29;20533;-82
2021/04/13 11:52:40;;;;;;;18.40;11.20;;;;;;;13.30;100.00;94806.38;4895397;29;20486;-83
2021/04/13 11:55:40;;;;;;;16.87;11.70;;;;;;;13.32;100.00;94804.41;4935986;29;20435;-83
2021/04/13 11:58:14;;;;;;;14.97;10.77;;;;;;;13.43;100.00;94795.47;4966113;28;20448;-82
2021/04/13 12:00:41;;;;;;;20.00;11.70;;;;;;;13.38;100.00;94793.28;4945526;28;20436;-84
2021/04/13 12:03:21;;;;;;;14.63;11.17;;;;;;;13.34;100.00;94797.19;5003862;28;20445;-84
2021/04/13 12:05:49;;;;;;;17.87;11.23;;;;;;;13.34;100.00;94786.66;5054883;28;20543;-83
2021/04/13 12:08:53;;;;;;;19.63;11.83;;;;;;;13.51;100.00;94796.34;5055636;28;20453;-83
2021/04/13 12:11:44;;;;;;;24.90;14.40;;;;;;;13.67;100.00;94786.97;5054526;28;20466;-83
2021/04/13 12:14:39;;;;;;;24.63;15.13;;;;;;;13.68;100.00;94780.69;5054877;28;20441;-83
2021/04/13 12:17:32;;;;;;;15.60;10.67;;;;;;;13.44;100.00;94766.31;5054017;28;20933;-83
2021/04/13 12:20:38;;;;;;;14.47;9.30;;;;;;;13.32;100.00;94764.88;5054590;28;20437;-83